Time;durP1;ratioP1;P1;durP2;ratioP2;P2;SDS_P1;SDS_P2;PMS_P1;PMS_P2;Temp;Humidity;BMP_temperature;BMP_pressure;BME280_temperature;BME280_humidity;BME280_pressure;Samples;Min_cycle;Max_cycle;Signal;HPM_P1;HPM_P2
2023/04/25 00:00:48;;;;;;;10.27;2.50;;;;;;;;;;5030008;28;20060;-77
2023/04/25 00:03:15;;;;;;;9.45;2.88;;;;;;;;;;5023204;28;20132;-77
2023/04/25 00:05:42;;;;;;;11.75;3.22;;;;;;;;;;5030583;28;20057;-77
2023/04/25 00:08:09;;;;;;;11.75;2.75;;;;;;;;;;5015347;28;20081;-77
2023/04/25 00:10:36;;;;;;;11.73;3.13;;;;;;;;;;5017603;28;20979;-77
2023/04/25 00:13:02;;;;;;;13.77;3.28;;;;;;;;;;5023241;28;20053;-77
2023/04/25 00:15:32;;;;;;;11.45;2.72;;;;;;;;;;5036084;28;20054;-77
2023/04/25 00:17:58;;;;;;;10.52;2.72;;;;;;;;;;5035384;28;20049;-77
2023/04/25 00:20:25;;;;;;;16.10;3.22;;;;;;;;;;5028702;28;20080;-77
2023/04/25 00:22:53;;;;;;;14.32;3.50;;;;;;;;;;5007401;28;20054;-77
2023/04/25 00:25:19;;;;;;;13.32;3.30;;;;;;;;;;5033340;28;20534;-77
2023/04/25 00:27:46;;;;;;;21.05;3.20;;;;;;;;;;5032312;28;20053;-77
2023/04/25 00:30:12;;;;;;;13.90;3.30;;;;;;;;;;5013026;28;20097;-77
2023/04/25 00:32:39;;;;;;;16.23;3.15;;;;;;;;;;5022500;28;20053;-77
2023/04/25 00:35:05;;;;;;;17.35;4.30;;;;;;;;;;5024758;28;20104;-76
2023/04/25 00:37:32;;;;;;;16.02;3.45;;;;;;;;;;5022519;28;20749;-77
2023/04/25 00:39:58;;;;;;;17.73;3.28;;;;;;;;;;5024203;28;20073;-77
2023/04/25 00:42:25;;;;;;;16.20;3.45;;;;;;;;;;5023592;28;20136;-77
2023/04/25 00:44:52;;;;;;;13.50;3.33;;;;;;;;;;5037899;28;20053;-77
2023/04/25 00:47:18;;;;;;;15.25;3.75;;;;;;;;;;5042847;28;20869;-77
2023/04/25 00:49:45;;;;;;;16.98;3.60;;;;;;;;;;5009425;28;20050;-77
2023/04/25 00:52:11;;;;;;;20.15;4.03;;;;;;;;;;5019684;28;20141;-77
2023/04/25 00:54:38;;;;;;;17.30;3.60;;;;;;;;;;5032372;28;20131;-77
2023/04/25 00:57:05;;;;;;;19.30;3.53;;;;;;;;;;5024217;28;20050;-77
2023/04/25 00:59:32;;;;;;;12.40;2.85;;;;;;;;;;5026829;28;20061;-77
2023/04/25 01:01:58;;;;;;;12.48;3.22;;;;;;;;;;5033104;28;20057;-76
2023/04/25 01:04:25;;;;;;;13.82;3.15;;;;;;;;;;5032861;28;20051;-76
2023/04/25 01:06:52;;;;;;;8.65;2.95;;;;;;;;;;5004433;28;20517;-77
2023/04/25 01:09:19;;;;;;;13.35;3.33;;;;;;;;;;5021260;28;20520;-77
2023/04/25 01:11:45;;;;;;;16.17;3.63;;;;;;;;;;5029351;28;20080;-76
2023/04/25 01:14:12;;;;;;;13.63;2.88;;;;;;;;;;5036525;28;20057;-77
2023/04/25 01:16:38;;;;;;;15.40;3.00;;;;;;;;;;5035974;28;20047;-77
2023/04/25 01:19:08;;;;;;;13.70;2.80;;;;;;;;;;5032998;28;20537;-77
2023/04/25 01:21:35;;;;;;;14.35;3.10;;;;;;;;;;5033750;28;20061;-77
2023/04/25 01:24:01;;;;;;;13.70;3.40;;;;;;;;;;5023105;28;20054;-77
2023/04/25 01:26:28;;;;;;;14.82;3.92;;;;;;;;;;5023211;28;20428;-77
2023/04/25 01:28:54;;;;;;;11.38;2.97;;;;;;;;;;5029067;28;20057;-77
2023/04/25 01:31:21;;;;;;;10.63;2.70;;;;;;;;;;5021876;28;20056;-77
2023/04/25 01:33:48;;;;;;;14.77;3.35;;;;;;;;;;5033413;28;20060;-77
2023/04/25 01:36:15;;;;;;;15.90;3.17;;;;;;;;;;5027657;28;20529;-77
2023/04/25 01:38:41;;;;;;;13.02;3.17;;;;;;;;;;5029276;28;20143;-77
2023/04/25 01:41:08;;;;;;;13.38;3.60;;;;;;;;;;5022632;28;20056;-76
2023/04/25 01:43:35;;;;;;;11.90;3.10;;;;;;;;;;5015389;28;20053;-77
2023/04/25 01:46:01;;;;;;;13.23;3.08;;;;;;;;;;5022076;28;20145;-77
2023/04/25 01:48:28;;;;;;;12.88;3.10;;;;;;;;;;5024250;28;20436;-77
2023/04/25 01:50:54;;;;;;;15.98;3.45;;;;;;;;;;5033165;28;20065;-78
2023/04/25 01:53:21;;;;;;;17.33;3.17;;;;;;;;;;5021233;28;20058;-77
2023/04/25 01:55:47;;;;;;;15.13;3.20;;;;;;;;;;5013267;28;20931;-77
2023/04/25 01:58:14;;;;;;;15.77;2.88;;;;;;;;;;5022338;28;20050;-76
2023/04/25 02:00:40;;;;;;;18.38;3.95;;;;;;;;;;5031046;28;20060;-77
2023/04/25 02:03:08;;;;;;;20.83;3.65;;;;;;;;;;5024300;28;20169;-77
2023/04/25 02:05:38;;;;;;;17.85;3.38;;;;;;;;;;5024581;28;20065;-77
2023/04/25 02:08:05;;;;;;;13.15;2.83;;;;;;;;;;5023011;28;20054;-77
2023/04/25 02:10:32;;;;;;;13.02;3.35;;;;;;;;;;5031525;28;20045;-77
2023/04/25 02:12:58;;;;;;;14.70;2.80;;;;;;;;;;5021065;28;20132;-77
2023/04/25 02:15:24;;;;;;;12.07;3.08;;;;;;;;;;5020329;28;20065;-77
2023/04/25 02:17:54;;;;;;;16.55;3.15;;;;;;;;;;5007063;28;20054;-77
2023/04/25 02:20:21;;;;;;;14.73;3.70;;;;;;;;;;5014600;28;20062;-77
2023/04/25 02:22:47;;;;;;;19.38;3.92;;;;;;;;;;5005075;28;20531;-77
2023/04/25 02:25:15;;;;;;;12.13;2.92;;;;;;;;;;5014887;28;20057;-77
2023/04/25 02:27:42;;;;;;;17.90;3.10;;;;;;;;;;5041606;28;20133;-77
2023/04/25 02:30:09;;;;;;;11.55;3.17;;;;;;;;;;5033142;28;20141;-77
2023/04/25 02:32:35;;;;;;;16.65;2.92;;;;;;;;;;5005724;28;20112;-77
2023/04/25 02:35:03;;;;;;;9.55;2.63;;;;;;;;;;5013703;28;20050;-77
2023/04/25 02:37:30;;;;;;;16.33;3.10;;;;;;;;;;5016605;28;20531;-77
2023/04/25 02:39:57;;;;;;;15.15;3.13;;;;;;;;;;5026492;28;20049;-76
2023/04/25 02:42:23;;;;;;;11.75;3.33;;;;;;;;;;5025970;28;20054;-77
2023/04/25 02:44:49;;;;;;;14.65;3.72;;;;;;;;;;5036068;28;20098;-77
2023/04/25 02:47:16;;;;;;;14.75;3.03;;;;;;;;;;5020634;28;20094;-77
2023/04/25 02:49:42;;;;;;;18.50;3.60;;;;;;;;;;5033490;28;20061;-77
2023/04/25 02:52:09;;;;;;;13.48;3.28;;;;;;;;;;5035438;28;20050;-77
2023/04/25 02:54:35;;;;;;;10.00;3.40;;;;;;;;;;5006147;28;21629;-77
2023/04/25 02:57:02;;;;;;;13.07;2.80;;;;;;;;;;5041083;28;20061;-77
2023/04/25 02:59:29;;;;;;;10.18;3.20;;;;;;;;;;5041151;28;20061;-77
2023/04/25 03:01:55;;;;;;;13.38;3.13;;;;;;;;;;5014357;28;20121;-77
2023/04/25 03:04:23;;;;;;;10.27;2.90;;;;;;;;;;5009398;28;20100;-77
2023/04/25 03:06:51;;;;;;;16.55;3.53;;;;;;;;;;5013175;28;20058;-77
2023/04/25 03:09:17;;;;;;;16.10;3.22;;;;;;;;;;5023181;28;20054;-77
2023/04/25 03:11:44;;;;;;;12.65;3.25;;;;;;;;;;5023547;28;20113;-76
2023/04/25 03:14:11;;;;;;;15.43;3.50;;;;;;;;;;5023317;28;20543;-76
2023/04/25 03:16:37;;;;;;;12.70;3.40;;;;;;;;;;5030598;28;20093;-77
2023/04/25 03:19:04;;;;;;;13.43;3.33;;;;;;;;;;5024797;28;20124;-77
2023/04/25 03:21:32;;;;;;;10.80;2.65;;;;;;;;;;5042474;28;20050;-77
2023/04/25 03:23:59;;;;;;;12.25;3.38;;;;;;;;;;5020552;28;20054;-77
2023/04/25 03:26:25;;;;;;;11.05;3.08;;;;;;;;;;5028956;28;20054;-77
2023/04/25 03:28:51;;;;;;;20.17;3.20;;;;;;;;;;5021096;28;20145;-77
2023/04/25 03:31:18;;;;;;;15.60;3.35;;;;;;;;;;5005444;28;20499;-77
2023/04/25 03:33:44;;;;;;;16.33;3.80;;;;;;;;;;5007225;28;20916;-76
2023/04/25 03:36:11;;;;;;;16.63;3.80;;;;;;;;;;5028996;28;20062;-77
2023/04/25 03:38:37;;;;;;;14.43;3.40;;;;;;;;;;5025677;28;20054;-77
2023/04/25 03:41:03;;;;;;;16.80;3.47;;;;;;;;;;5025307;28;20085;-77
2023/04/25 03:43:30;;;;;;;14.68;2.97;;;;;;;;;;5022232;28;20089;-77
2023/04/25 03:45:56;;;;;;;18.48;3.47;;;;;;;;;;5027107;28;20058;-77
2023/04/25 03:48:24;;;;;;;11.55;3.05;;;;;;;;;;5024400;28;20050;-77
2023/04/25 03:50:51;;;;;;;10.35;3.05;;;;;;;;;;5022281;28;20073;-76
2023/04/25 03:53:17;;;;;;;14.82;3.85;;;;;;;;;;5025665;28;20521;-77
2023/04/25 03:55:44;;;;;;;15.48;3.30;;;;;;;;;;5017266;28;20177;-77
2023/04/25 03:58:10;;;;;;;13.88;3.13;;;;;;;;;;5010921;28;20057;-77
2023/04/25 04:00:36;;;;;;;19.38;3.38;;;;;;;;;;5026272;28;20649;-77
2023/04/25 04:03:03;;;;;;;13.45;3.22;;;;;;;;;;5024638;28;20684;-77
2023/04/25 04:05:29;;;;;;;12.40;2.60;;;;;;;;;;5025829;28;20062;-76
2023/04/25 04:07:56;;;;;;;14.95;3.90;;;;;;;;;;5027616;28;20220;-77
2023/04/25 04:10:22;;;;;;;15.98;3.40;;;;;;;;;;5037555;28;20058;-77
2023/04/25 04:12:48;;;;;;;17.20;3.30;;;;;;;;;;5010496;28;20055;-77
2023/04/25 04:15:15;;;;;;;15.77;3.38;;;;;;;;;;5022239;28;20054;-76
2023/04/25 04:17:41;;;;;;;22.83;3.17;;;;;;;;;;5019975;28;20089;-76
2023/04/25 04:20:08;;;;;;;14.77;3.17;;;;;;;;;;5035939;28;20131;-77
2023/04/25 04:22:35;;;;;;;12.10;3.28;;;;;;;;;;5003568;28;20976;-77
2023/04/25 04:25:02;;;;;;;15.95;3.30;;;;;;;;;;5009094;28;20057;-76
2023/04/25 04:27:29;;;;;;;10.27;3.15;;;;;;;;;;5021629;28;20057;-77
2023/04/25 04:29:55;;;;;;;10.07;2.97;;;;;;;;;;5033024;28;20071;-77
2023/04/25 04:32:23;;;;;;;15.55;3.55;;;;;;;;;;5044656;28;20060;-77
2023/04/25 04:34:50;;;;;;;11.88;3.05;;;;;;;;;;5025051;28;20050;-77
2023/04/25 04:37:16;;;;;;;17.67;3.08;;;;;;;;;;5028453;28;20149;-77
2023/04/25 04:39:42;;;;;;;10.75;2.70;;;;;;;;;;5019116;28;20113;-77
2023/04/25 04:42:11;;;;;;;12.00;2.90;;;;;;;;;;5013851;28;20060;-77
2023/04/25 04:44:38;;;;;;;12.40;3.20;;;;;;;;;;5036211;28;21007;-76
2023/04/25 04:47:06;;;;;;;10.98;3.63;;;;;;;;;;5027156;28;20093;-77
2023/04/25 04:49:32;;;;;;;11.98;2.80;;;;;;;;;;5017201;28;20054;-76
2023/04/25 04:52:00;;;;;;;12.38;2.80;;;;;;;;;;5020006;28;20054;-77
2023/04/25 04:54:26;;;;;;;9.93;2.55;;;;;;;;;;5019383;28;20054;-77
2023/04/25 04:56:53;;;;;;;14.40;2.97;;;;;;;;;;5015061;28;20141;-77
2023/04/25 04:59:19;;;;;;;9.45;2.63;;;;;;;;;;5022961;28;20053;-76
2023/04/25 05:01:46;;;;;;;14.90;3.08;;;;;;;;;;5044322;28;20062;-76
2023/04/25 05:04:13;;;;;;;10.65;2.50;;;;;;;;;;5039994;28;20064;-76
2023/04/25 05:06:40;;;;;;;14.77;2.83;;;;;;;;;;5032869;28;20057;-76
2023/04/25 05:09:06;;;;;;;19.65;2.90;;;;;;;;;;5008794;28;20113;-77
2023/04/25 05:11:33;;;;;;;9.45;2.60;;;;;;;;;;5010490;28;20081;-76
2023/04/25 05:13:59;;;;;;;14.88;3.08;;;;;;;;;;5008290;28;20057;-77
2023/04/25 05:16:25;;;;;;;11.20;2.63;;;;;;;;;;5006717;28;20066;-77
2023/04/25 05:18:52;;;;;;;11.38;2.70;;;;;;;;;;5028425;28;20061;-77
2023/04/25 05:21:18;;;;;;;12.40;2.47;;;;;;;;;;5043284;28;20144;-77
2023/04/25 05:23:45;;;;;;;9.65;2.70;;;;;;;;;;5022541;28;20054;-76
2023/04/25 05:26:13;;;;;;;10.05;2.30;;;;;;;;;;5012286;28;20057;-77
2023/04/25 05:28:40;;;;;;;10.07;2.47;;;;;;;;;;5036319;28;20139;-77
2023/04/25 05:31:07;;;;;;;10.55;2.50;;;;;;;;;;5024825;28;20072;-77
2023/04/25 05:33:33;;;;;;;7.95;2.22;;;;;;;;;;5028385;28;20057;-77
2023/04/25 05:36:00;;;;;;;9.80;2.17;;;;;;;;;;5014339;28;20066;-76
2023/04/25 05:38:26;;;;;;;7.95;2.38;;;;;;;;;;5012014;28;20170;-77
2023/04/25 05:40:53;;;;;;;9.65;2.42;;;;;;;;;;5021776;28;20054;-77
2023/04/25 05:43:19;;;;;;;15.73;2.63;;;;;;;;;;5019456;28;20057;-77
2023/04/25 05:45:46;;;;;;;9.00;2.30;;;;;;;;;;5017037;28;20060;-77
2023/04/25 05:48:13;;;;;;;12.40;2.20;;;;;;;;;;5020419;28;20060;-77
2023/04/25 05:50:39;;;;;;;15.00;2.63;;;;;;;;;;5026262;28;20065;-77
2023/04/25 05:53:06;;;;;;;7.47;2.42;;;;;;;;;;5021349;28;20057;-76
2023/04/25 05:55:32;;;;;;;8.02;1.90;;;;;;;;;;5022190;28;20064;-77
2023/04/25 05:57:58;;;;;;;8.35;2.05;;;;;;;;;;5038490;28;20992;-76
2023/04/25 06:00:25;;;;;;;12.20;2.50;;;;;;;;;;5019161;28;20798;-77
2023/04/25 06:02:51;;;;;;;8.23;1.90;;;;;;;;;;5027930;28;20562;-77
2023/04/25 06:05:18;;;;;;;11.05;1.80;;;;;;;;;;5025576;28;20058;-77
2023/04/25 06:07:44;;;;;;;5.22;1.50;;;;;;;;;;5039277;28;20144;-77
2023/04/25 06:10:11;;;;;;;9.73;2.00;;;;;;;;;;5043787;28;20065;-76
2023/04/25 06:12:38;;;;;;;9.48;1.98;;;;;;;;;;5020275;28;20054;-77
2023/04/25 06:15:05;;;;;;;7.97;1.83;;;;;;;;;;5039020;28;20058;-77
2023/04/25 06:17:51;;;;;;;8.65;1.80;;;;;;;;;;5013532;28;20607;-77
2023/04/25 06:20:19;;;;;;;7.93;1.70;;;;;;;;;;5017839;28;20577;-77
2023/04/25 06:22:45;;;;;;;8.32;1.60;;;;;;;;;;5024552;28;20053;-77
2023/04/25 06:25:12;;;;;;;4.75;1.33;;;;;;;;;;5040373;28;21194;-77
2023/04/25 06:27:38;;;;;;;7.03;1.80;;;;;;;;;;5014883;28;20453;-77
2023/04/25 06:30:05;;;;;;;13.80;1.92;;;;;;;;;;5024250;28;20644;-77
2023/04/25 06:32:32;;;;;;;10.40;1.63;;;;;;;;;;5027171;28;20054;-76
2023/04/25 06:34:58;;;;;;;9.65;1.70;;;;;;;;;;5024200;28;20058;-77
2023/04/25 06:37:25;;;;;;;7.57;1.58;;;;;;;;;;5023037;28;20204;-76
2023/04/25 06:39:51;;;;;;;8.70;1.65;;;;;;;;;;5028474;28;20062;-77
2023/04/25 06:42:17;;;;;;;7.75;1.92;;;;;;;;;;5023543;28;20058;-76
2023/04/25 06:44:44;;;;;;;6.80;1.50;;;;;;;;;;5023638;28;20189;-77
2023/04/25 06:47:10;;;;;;;7.60;1.60;;;;;;;;;;5022227;28;20119;-77
2023/04/25 06:49:36;;;;;;;6.55;1.80;;;;;;;;;;5029051;28;20812;-77
2023/04/25 06:52:03;;;;;;;5.75;1.30;;;;;;;;;;5026293;28;20556;-77
2023/04/25 06:54:29;;;;;;;9.43;1.88;;;;;;;;;;5023859;28;20109;-77
2023/04/25 06:56:56;;;;;;;6.15;1.30;;;;;;;;;;5015180;28;20089;-77
2023/04/25 06:59:22;;;;;;;10.77;1.70;;;;;;;;;;5037196;28;20065;-77
2023/04/25 07:01:48;;;;;;;10.32;1.60;;;;;;;;;;5009440;28;20053;-77
2023/04/25 07:04:15;;;;;;;8.13;1.80;;;;;;;;;;5009158;28;20066;-77
2023/04/25 07:06:47;;;;;;;9.80;2.08;;;;;;;;;;5011661;28;20065;-76
2023/04/25 07:09:13;;;;;;;9.65;1.58;;;;;;;;;;5022950;28;20149;-78
2023/04/25 07:11:40;;;;;;;11.88;1.77;;;;;;;;;;5010442;28;20061;-77
2023/04/25 07:14:06;;;;;;;10.55;1.52;;;;;;;;;;5024754;28;21230;-77
2023/04/25 07:16:32;;;;;;;11.30;1.55;;;;;;;;;;5029428;28;20058;-78
2023/04/25 07:19:02;;;;;;;9.30;1.75;;;;;;;;;;5023761;28;20050;-78
2023/04/25 07:21:28;;;;;;;5.32;1.15;;;;;;;;;;5017800;28;20423;-78
2023/04/25 07:23:55;;;;;;;11.68;1.70;;;;;;;;;;5024251;28;20050;-77
2023/04/25 07:26:21;;;;;;;8.32;1.70;;;;;;;;;;5023020;28;20574;-77
2023/04/25 07:28:50;;;;;;;6.82;1.27;;;;;;;;;;5020975;28;20100;-77
2023/04/25 07:31:18;;;;;;;8.30;1.60;;;;;;;;;;5021657;28;20081;-77
2023/04/25 07:33:47;;;;;;;7.22;1.20;;;;;;;;;;5020472;28;20172;-77
2023/04/25 07:36:15;;;;;;;7.80;1.40;;;;;;;;;;5024239;28;20057;-79
2023/04/25 07:38:41;;;;;;;5.60;1.15;;;;;;;;;;5005662;28;20552;-79
2023/04/25 07:41:07;;;;;;;7.65;1.20;;;;;;;;;;5008782;28;20061;-79
2023/04/25 07:43:34;;;;;;;7.72;1.23;;;;;;;;;;5023932;28;20134;-79
2023/04/25 07:46:00;;;;;;;7.93;1.60;;;;;;;;;;5023798;28;20057;-79
2023/04/25 07:48:26;;;;;;;7.40;1.15;;;;;;;;;;5022726;28;20619;-79
2023/04/25 07:50:53;;;;;;;11.90;1.98;;;;;;;;;;5025255;28;20053;-77
2023/04/25 07:53:19;;;;;;;9.85;1.17;;;;;;;;;;5015937;28;20053;-77
2023/04/25 07:55:46;;;;;;;8.20;1.45;;;;;;;;;;5014023;28;20065;-77
2023/04/25 07:58:12;;;;;;;6.07;1.23;;;;;;;;;;5023730;28;20054;-77
2023/04/25 08:00:39;;;;;;;9.93;1.23;;;;;;;;;;5018934;28;20058;-77
2023/04/25 08:03:06;;;;;;;8.40;1.55;;;;;;;;;;5017780;28;20064;-77
2023/04/25 08:05:33;;;;;;;11.70;1.40;;;;;;;;;;5023681;28;20074;-77
2023/04/25 08:07:59;;;;;;;7.53;1.30;;;;;;;;;;5021063;28;20054;-77
2023/04/25 08:10:25;;;;;;;7.72;1.60;;;;;;;;;;5015213;28;20058;-77
2023/04/25 08:12:52;;;;;;;6.63;1.48;;;;;;;;;;5017508;28;20839;-77
2023/04/25 08:15:18;;;;;;;5.65;1.70;;;;;;;;;;5012941;28;20060;-77
2023/04/25 08:17:45;;;;;;;6.80;1.30;;;;;;;;;;5026420;28;20058;-77
2023/04/25 08:20:11;;;;;;;7.35;1.20;;;;;;;;;;5008934;28;20414;-77
2023/04/25 08:22:38;;;;;;;6.82;1.20;;;;;;;;;;5020889;28;20588;-77
2023/04/25 08:25:04;;;;;;;5.18;1.20;;;;;;;;;;5007274;28;20046;-77
2023/04/25 08:27:31;;;;;;;7.20;1.38;;;;;;;;;;5015307;28;20572;-77
2023/04/25 08:29:58;;;;;;;5.75;1.30;;;;;;;;;;5010911;28;20149;-77
2023/04/25 08:32:25;;;;;;;9.05;1.75;;;;;;;;;;5021178;28;20054;-77
2023/04/25 08:34:53;;;;;;;5.95;1.40;;;;;;;;;;5015054;28;20070;-77
2023/04/25 08:37:20;;;;;;;10.93;2.10;;;;;;;;;;5022042;28;20156;-77
2023/04/25 08:39:48;;;;;;;7.53;1.10;;;;;;;;;;5014062;28;20189;-77
2023/04/25 08:42:15;;;;;;;7.15;0.88;;;;;;;;;;5018877;28;20061;-76
2023/04/25 08:44:41;;;;;;;5.03;1.00;;;;;;;;;;5022374;28;20504;-77
2023/04/25 08:47:08;;;;;;;4.80;1.00;;;;;;;;;;5021546;28;21038;-77
2023/04/25 08:49:34;;;;;;;6.70;1.10;;;;;;;;;;5016642;28;20060;-77
2023/04/25 08:52:05;;;;;;;4.93;0.90;;;;;;;;;;5017615;28;20145;-77
2023/04/25 08:54:32;;;;;;;5.18;0.73;;;;;;;;;;5023574;28;20066;-77
2023/04/25 08:57:04;;;;;;;4.93;0.80;;;;;;;;;;5028827;28;20058;-77
2023/04/25 08:59:32;;;;;;;5.77;1.00;;;;;;;;;;5010307;28;20058;-77
2023/04/25 09:01:58;;;;;;;3.58;0.88;;;;;;;;;;5010333;28;20505;-77
2023/04/25 09:04:25;;;;;;;4.72;0.80;;;;;;;;;;5006043;28;20062;-77
2023/04/25 09:06:51;;;;;;;5.47;0.90;;;;;;;;;;5015066;28;20054;-78
2023/04/25 09:09:18;;;;;;;6.85;1.08;;;;;;;;;;5014602;28;20058;-77
2023/04/25 09:11:44;;;;;;;7.30;1.00;;;;;;;;;;5019226;28;20768;-78
2023/04/25 09:14:14;;;;;;;5.68;1.20;;;;;;;;;;5020760;28;20509;-77
2023/04/25 09:16:57;;;;;;;7.90;1.27;;;;;;;;;;5024905;28;20045;-77
2023/04/25 09:19:25;;;;;;;5.65;1.02;;;;;;;;;;5014947;28;20785;-77
2023/04/25 09:22:06;;;;;;;8.30;1.35;;;;;;;;;;5034500;28;20069;-77
2023/04/25 09:24:39;;;;;;;5.82;1.02;;;;;;;;;;5013413;28;20144;-78
2023/04/25 09:27:07;;;;;;;7.30;1.42;;;;;;;;;;5012651;28;20049;-77
2023/04/25 09:29:34;;;;;;;6.63;1.25;;;;;;;;;;5026507;28;20448;-77
2023/04/25 09:32:20;;;;;;;4.55;1.00;;;;;;;;;;5037418;28;20053;-78
2023/04/25 09:34:49;;;;;;;7.07;1.33;;;;;;;;;;5014115;28;20149;-78
2023/04/25 09:37:22;;;;;;;6.75;1.10;;;;;;;;;;5024868;28;20060;-78
2023/04/25 09:39:50;;;;;;;5.47;1.10;;;;;;;;;;5021335;28;20053;-77
2023/04/25 09:42:17;;;;;;;4.70;1.00;;;;;;;;;;5019383;28;20060;-77
2023/04/25 09:44:46;;;;;;;7.45;1.20;;;;;;;;;;5008697;28;20148;-77
2023/04/25 09:47:14;;;;;;;7.65;1.40;;;;;;;;;;5013848;28;20077;-77
2023/04/25 09:49:42;;;;;;;7.05;1.23;;;;;;;;;;5015522;28;20065;-77
2023/04/25 09:52:08;;;;;;;6.80;1.10;;;;;;;;;;5019123;28;20141;-76
2023/04/25 09:54:35;;;;;;;6.22;1.23;;;;;;;;;;5016886;28;20057;-77
2023/04/25 09:57:21;;;;;;;7.70;0.90;;;;;;;;;;5006951;28;20513;-77
2023/04/25 09:59:49;;;;;;;5.65;1.17;;;;;;;;;;5002939;28;20046;-77
2023/04/25 10:02:19;;;;;;;4.63;0.98;;;;;;;;;;5014685;28;20137;-76
2023/04/25 10:04:51;;;;;;;3.92;0.90;;;;;;;;;;5006620;28;20524;-76
2023/04/25 10:07:18;;;;;;;3.85;0.85;;;;;;;;;;5009525;28;20082;-76
2023/04/25 10:09:47;;;;;;;5.25;0.75;;;;;;;;;;5018723;28;20141;-77
2023/04/25 10:12:14;;;;;;;6.13;0.90;;;;;;;;;;5010794;28;20045;-77
2023/04/25 10:14:41;;;;;;;4.80;1.00;;;;;;;;;;5011111;28;20513;-76
2023/04/25 10:17:10;;;;;;;6.75;1.00;;;;;;;;;;5022941;28;20148;-76
2023/04/25 10:19:36;;;;;;;5.03;0.90;;;;;;;;;;5011716;28;20057;-77
2023/04/25 10:22:05;;;;;;;7.13;1.00;;;;;;;;;;5020300;28;20058;-76
2023/04/25 10:24:32;;;;;;;3.15;0.80;;;;;;;;;;5017194;28;20054;-77
2023/04/25 10:26:58;;;;;;;4.28;0.90;;;;;;;;;;5022578;28;20433;-77
2023/04/25 10:29:25;;;;;;;6.10;1.05;;;;;;;;;;5023120;28;20844;-76
2023/04/25 10:31:52;;;;;;;5.88;0.90;;;;;;;;;;5018336;28;20057;-77
2023/04/25 10:34:19;;;;;;;5.47;1.05;;;;;;;;;;5018833;28;20058;-77
2023/04/25 10:36:50;;;;;;;5.90;1.15;;;;;;;;;;5021722;28;20870;-77
2023/04/25 10:39:16;;;;;;;;;;;;;;;;;;5022985;28;20050;-77
2023/04/25 10:41:52;;;;;;;8.75;1.17;;;;;;;;;;5008633;28;43769;-76
2023/04/25 10:44:19;;;;;;;4.35;0.98;;;;;;;;;;5013286;28;20149;-76
2023/04/25 10:46:45;;;;;;;3.75;0.70;;;;;;;;;;5036447;28;20148;-77
2023/04/25 10:49:28;;;;;;;5.55;1.10;;;;;;;;;;5024368;28;20054;-76
2023/04/25 10:52:10;;;;;;;4.75;1.00;;;;;;;;;;5025860;28;20575;-77
2023/04/25 10:54:47;;;;;;;3.00;0.90;;;;;;;;;;5036286;28;20161;-77
2023/04/25 10:57:32;;;;;;;3.15;0.80;;;;;;;;;;5010367;28;20081;-77
2023/04/25 11:00:05;;;;;;;4.07;0.90;;;;;;;;;;5012965;28;20125;-77
2023/04/25 11:02:32;;;;;;;5.93;1.15;;;;;;;;;;5009739;28;20054;-77
2023/04/25 11:04:59;;;;;;;4.57;0.90;;;;;;;;;;5024333;28;20513;-77
2023/04/25 11:07:34;;;;;;;4.35;0.90;;;;;;;;;;5005669;28;20047;-77
2023/04/25 11:10:01;;;;;;;5.63;0.95;;;;;;;;;;5019223;28;20099;-77
2023/04/25 11:12:29;;;;;;;4.40;0.77;;;;;;;;;;5024409;28;20173;-77
2023/04/25 11:15:00;;;;;;;3.17;1.00;;;;;;;;;;5027457;28;20045;-77
2023/04/25 11:17:27;;;;;;;4.38;1.23;;;;;;;;;;5034754;28;20061;-77
2023/04/25 11:19:54;;;;;;;3.22;1.00;;;;;;;;;;5009672;28;20058;-77
2023/04/25 11:22:21;;;;;;;4.88;0.90;;;;;;;;;;5016993;28;20078;-77
2023/04/25 11:24:47;;;;;;;7.10;1.20;;;;;;;;;;5017152;28;20136;-76
2023/04/25 11:27:14;;;;;;;6.47;1.10;;;;;;;;;;5029697;28;20061;-77
2023/04/25 11:29:40;;;;;;;4.10;0.82;;;;;;;;;;5039694;28;20111;-77
2023/04/25 11:32:07;;;;;;;5.40;1.00;;;;;;;;;;5020609;28;20050;-77
2023/04/25 11:34:34;;;;;;;9.13;1.38;;;;;;;;;;5019582;28;20056;-76
2023/04/25 11:37:01;;;;;;;8.00;1.40;;;;;;;;;;5025790;28;20058;-77
2023/04/25 11:39:28;;;;;;;8.25;1.20;;;;;;;;;;5021344;28;20532;-76
2023/04/25 11:41:55;;;;;;;6.38;1.08;;;;;;;;;;5012016;28;20058;-76
2023/04/25 11:44:21;;;;;;;6.00;0.95;;;;;;;;;;5017867;28;20436;-77
2023/04/25 11:46:48;;;;;;;5.20;1.20;;;;;;;;;;5020160;28;20057;-77
2023/04/25 11:49:15;;;;;;;5.82;1.20;;;;;;;;;;5031008;28;20053;-77
2023/04/25 11:51:43;;;;;;;5.15;1.08;;;;;;;;;;5033828;28;20054;-76
2023/04/25 11:54:10;;;;;;;5.57;1.30;;;;;;;;;;5019046;28;20605;-76
2023/04/25 11:56:36;;;;;;;5.18;1.00;;;;;;;;;;5018970;28;20489;-76
2023/04/25 11:59:04;;;;;;;9.82;1.67;;;;;;;;;;5017851;28;20058;-76
2023/04/25 12:01:32;;;;;;;4.47;1.10;;;;;;;;;;5015662;28;20065;-76
2023/04/25 12:04:20;;;;;;;4.25;1.35;;;;;;;;;;5016046;28;20050;-76
2023/04/25 12:06:48;;;;;;;3.85;0.80;;;;;;;;;;5023484;28;20054;-76
2023/04/25 12:09:19;;;;;;;7.95;1.25;;;;;;;;;;5022787;28;20053;-76
2023/04/25 12:11:46;;;;;;;5.85;1.17;;;;;;;;;;5020563;28;20105;-76
2023/04/25 12:14:20;;;;;;;6.38;1.20;;;;;;;;;;5019712;28;20124;-76
2023/04/25 12:16:46;;;;;;;4.63;1.17;;;;;;;;;;5012236;28;20398;-77
2023/04/25 12:19:14;;;;;;;5.80;1.10;;;;;;;;;;5022923;28;20060;-76
2023/04/25 12:21:40;;;;;;;5.82;1.10;;;;;;;;;;5023786;28;20602;-76
2023/04/25 12:24:25;;;;;;;5.40;0.90;;;;;;;;;;5021460;28;20058;-76
2023/04/25 12:27:00;;;;;;;5.28;1.00;;;;;;;;;;5031404;28;20058;-76
2023/04/25 12:29:29;;;;;;;8.05;1.80;;;;;;;;;;5018045;28;20058;-76
2023/04/25 12:32:07;;;;;;;7.37;1.23;;;;;;;;;;5024409;28;20141;-75
2023/04/25 12:34:35;;;;;;;6.30;0.90;;;;;;;;;;5017067;28;20050;-76
2023/04/25 12:37:02;;;;;;;4.43;1.08;;;;;;;;;;5017127;28;20532;-76
2023/04/25 12:39:28;;;;;;;3.97;1.02;;;;;;;;;;5015239;28;21386;-76
2023/04/25 12:41:55;;;;;;;4.88;1.08;;;;;;;;;;5015857;28;20527;-76
2023/04/25 12:44:21;;;;;;;6.95;1.15;;;;;;;;;;5019928;28;20107;-76
2023/04/25 12:46:48;;;;;;;7.53;1.40;;;;;;;;;;5029154;28;20169;-76
2023/04/25 12:49:14;;;;;;;4.47;0.90;;;;;;;;;;5006181;28;20129;-75
2023/04/25 12:51:44;;;;;;;6.55;1.10;;;;;;;;;;5016436;28;20060;-76
2023/04/25 12:54:11;;;;;;;3.83;0.82;;;;;;;;;;5020407;28;20825;-76
2023/04/25 12:56:38;;;;;;;5.00;0.90;;;;;;;;;;5019288;28;20142;-76
2023/04/25 12:59:04;;;;;;;3.60;0.80;;;;;;;;;;5010591;28;20600;-75
2023/04/25 13:01:31;;;;;;;6.25;1.00;;;;;;;;;;5022658;28;20053;-76
2023/04/25 13:04:01;;;;;;;8.38;1.20;;;;;;;;;;5034313;28;20057;-75
2023/04/25 13:06:29;;;;;;;8.85;1.25;;;;;;;;;;5003594;28;20116;-75
2023/04/25 13:08:56;;;;;;;3.13;0.95;;;;;;;;;;5018727;28;20155;-76
2023/04/25 13:11:22;;;;;;;4.10;1.08;;;;;;;;;;5021702;28;20931;-76
2023/04/25 13:13:48;;;;;;;5.65;0.95;;;;;;;;;;5037899;28;20064;-75
2023/04/25 13:16:15;;;;;;;4.93;1.00;;;;;;;;;;5020994;28;20539;-76
2023/04/25 13:18:42;;;;;;;4.80;1.23;;;;;;;;;;5004915;28;20061;-76
2023/04/25 13:21:11;;;;;;;4.90;1.77;;;;;;;;;;5010571;28;20136;-76
2023/04/25 13:23:38;;;;;;;3.88;0.93;;;;;;;;;;5020203;28;20069;-76
2023/04/25 13:26:04;;;;;;;4.88;1.25;;;;;;;;;;5014456;28;20057;-76
2023/04/25 13:28:30;;;;;;;6.15;1.23;;;;;;;;;;5025746;28;20056;-76
2023/04/25 13:30:57;;;;;;;8.07;1.10;;;;;;;;;;5043092;28;20057;-76
2023/04/25 13:33:24;;;;;;;6.45;1.15;;;;;;;;;;5029134;28;20065;-76
2023/04/25 13:35:53;;;;;;;5.95;0.82;;;;;;;;;;5018209;28;20054;-76
2023/04/25 13:38:21;;;;;;;8.32;1.30;;;;;;;;;;5006782;28;20483;-74
2023/04/25 13:40:47;;;;;;;4.95;1.02;;;;;;;;;;5010824;28;20063;-75
2023/04/25 13:43:14;;;;;;;3.25;0.90;;;;;;;;;;5020174;28;20053;-75
2023/04/25 13:45:40;;;;;;;5.57;0.90;;;;;;;;;;5042235;28;20136;-76
2023/04/25 13:48:07;;;;;;;4.65;1.15;;;;;;;;;;5019380;28;20050;-75
2023/04/25 13:50:33;;;;;;;5.00;0.95;;;;;;;;;;5023491;28;20061;-75
2023/04/25 13:53:00;;;;;;;4.50;0.90;;;;;;;;;;5017427;28;20528;-75
2023/04/25 13:55:26;;;;;;;4.65;1.02;;;;;;;;;;5021638;28;20058;-76
2023/04/25 13:57:53;;;;;;;5.80;1.17;;;;;;;;;;5021909;28;20066;-75
2023/04/25 14:00:20;;;;;;;5.15;1.10;;;;;;;;;;5017328;28;20050;-75
2023/04/25 14:02:46;;;;;;;8.27;1.30;;;;;;;;;;5021302;28;20715;-75
2023/04/25 14:05:16;;;;;;;9.18;1.23;;;;;;;;;;5043132;28;20061;-75
2023/04/25 14:07:42;;;;;;;7.32;1.20;;;;;;;;;;5004017;28;20052;-75
2023/04/25 14:10:08;;;;;;;5.82;1.10;;;;;;;;;;5026286;28;20053;-74
2023/04/25 14:12:35;;;;;;;6.35;1.40;;;;;;;;;;5013844;28;20053;-74
2023/04/25 14:15:01;;;;;;;7.63;1.50;;;;;;;;;;5003983;28;20057;-75
2023/04/25 14:17:28;;;;;;;4.47;1.10;;;;;;;;;;5024895;28;20093;-74
2023/04/25 14:19:54;;;;;;;4.53;1.30;;;;;;;;;;5011172;28;20055;-74
2023/04/25 14:22:21;;;;;;;6.32;1.30;;;;;;;;;;5037999;28;20064;-74
2023/04/25 14:24:47;;;;;;;8.15;1.45;;;;;;;;;;5013617;28;20057;-75
2023/04/25 14:27:14;;;;;;;5.63;1.23;;;;;;;;;;5011098;28;20149;-74
2023/04/25 14:29:40;;;;;;;3.50;1.10;;;;;;;;;;5017828;28;20057;-74
2023/04/25 14:32:07;;;;;;;5.75;1.30;;;;;;;;;;5017628;28;20063;-74
2023/04/25 14:34:33;;;;;;;7.65;1.60;;;;;;;;;;5021797;28;20057;-74
2023/04/25 14:36:59;;;;;;;3.75;1.02;;;;;;;;;;5027474;28;20057;-74
2023/04/25 14:39:25;;;;;;;3.35;1.00;;;;;;;;;;5018669;28;20577;-74